Details From SVMI - Caracas Simon Bolivar Intl
To LFRM - Le Mans Arnage
Flight Number -
Tags Decoded
Created
Modified
Stats Distance 4,035 nm / 7,472 km
Max Altitude 0 ft / 0 m
Waypoints 7
Social Downloads 1
Likes 0
Share VATSIM

Download

Looking for another format? Having issues loading an existing format? Contact us
Advertisement - Login to hide

Notes

Decoded

Route

DARPA EDGEL RKDIA ETIKI REGHI ANG KEPER

ID Type Via Altitude Latitude Longitude Leg Dist Tot Dist Heading (true) Name
O DARPA FIX - 0 ft / 0 m 10.88808˚ -66.92203˚ - 0 nm - -
EDGEL FIX - 0 ft / 0 m 11.58750˚ -66.75722˚ 43 nm 43 nm 13° / 13° -
RKDIA FIX - 0 ft / 0 m 21.00000˚ -60.00000˚ 686 nm 729 nm 34° / 36° -
ETIKI FIX - 0 ft / 0 m 48.00000˚ -8.75000˚ 2937 nm 3666 nm 44° / 75° -
REGHI FIX - 0 ft / 0 m 48.00000˚ -8.00000˚ 30 nm 3696 nm 90° / 90° -
ANG VOR - 0 ft / 0 m 47.53686˚ -0.85183˚ 289 nm 3986 nm 93° / 98° ANGERS VOR
O KEPER FIX - 0 ft / 0 m 47.80611˚ 0.27389˚ 48 nm 4034 nm 70° / 71° -

Altitude Profile

Advertisement - Login to hide

Weather


0- 5 10 15 20 25 30 35+ Temperature / ° C

Clouds and Precipitation
Forecast for 2017-12-14 00:00 UTC. Updated 2 hours ago

Ground ~20,000 ft ~40,000 ft Winds

SVMI

Details ICAO SVMI (CCS)
Name Caracas Simon Bolivar Intl
Region Venezuela
Timezone America/Caracas (UTC-4.0)
Stats Elevation 235 ft / 72 m (AMSL)
Location 10.603119° -66.990585°
Runways 2
Magnetic Variation 12.288° W

METAR

SVMI 132300Z 02003KT 9999 BKN016 27/22 Q1011

Decode

TAF

TAF SVMI 131000Z 1312/1412 00000KT 9999 FEW016 TX30/19Z TN21/09Z BECMG 1314/1318 05008KT 9999 SCT016

Decode

Departure Runways

ID Width Length Bearing (true) Bearing (mag) Surface Threshold Offset Overrun Length
09 145 ft / 44 m 9,825 ft / 2,995 m 75.92° 88.21° Asphalt 0 ft / 0 m 0 ft / 0 m
10 148 ft / 45 m 11,472 ft / 3,497 m 88.14° 100.43° Asphalt 0 ft / 0 m 200 ft / 61 m
27 145 ft / 44 m 9,825 ft / 2,995 m 255.92° 268.21° Asphalt 0 ft / 0 m 0 ft / 0 m
28 148 ft / 45 m 11,472 ft / 3,497 m 268.15° 280.44° Asphalt 0 ft / 0 m 200 ft / 61 m

LFRM

Details ICAO LFRM (LME)
Name Le Mans Arnage
Region France
Timezone Europe/Paris (UTC+1.0)
Stats Elevation 194 ft / 59 m (AMSL)
Location 47.947839° 0.201291°
Runways 1
Magnetic Variation 0.008° W

METAR

LFRM 132300Z AUTO 24013KT 210V280 9999 BKN035 BKN042 OVC210 10/05 Q1003

Decode

TAF

Not found

Destination Runways

ID Width Length Bearing (true) Bearing (mag) Surface Threshold Offset Overrun Length
02 98 ft / 30 m 4,657 ft / 1,420 m 20.27° 20.28° Asphalt 0 ft / 0 m 0 ft / 0 m
20 98 ft / 30 m 4,657 ft / 1,420 m 200.28° 200.29° Asphalt 918 ft / 280 m 0 ft / 0 m

Approach Navaids

Runway Type Ident Frequency Range Bearing (true) Bearing (mag) Slope Elevation
02 Localiser LEM 109.75 MHz 18 nm / 33 km 20.27° 20.28° - 194 ft / 59 m (AMSL)
02 DME LEM 109.75 MHz 18 nm / 33 km - - - 180 ft / 55 m (AMSL)